Terminal Aerodrome Forecast
Issued by NWS Lake Charles, LA

Home | Current Version | Previous Version | Text Only | Print | Product List | Glossary On
Versions: 1 2 3 4 5 6 7 8 9 10 11 12 13 14 15 16
607
FTUS44 KLCH 261720
TAFARA
TAF
KARA 261720Z 2618/2718 18012G20KT P6SM SCT025 SCT035
      TEMPO 2618/2621 BKN025 BKN035
     FM262100 18013G21KT P6SM VCTS SCT025 BKN035CB
      TEMPO 2621/2701 3SM TSRA BKN025 BKN035CB
     FM270100 18010KT P6SM BKN025
     FM271500 17016G24KT P6SM VCSH BKN025=

USA.gov is the U.S. government's official web portal to all federal, state and local government web resources and services.